Time;durP1;ratioP1;P1;durP2;ratioP2;P2;SDS_P1;SDS_P2;PMS_P1;PMS_P2;Temp;Humidity;BMP_temperature;BMP_pressure;BME280_temperature;BME280_humidity;BME280_pressure;Samples;Min_cycle;Max_cycle;Signal;HPM_P1;HPM_P2
2023/10/01 00:01:45;;;;;;;15.70;8.30;;;;;;;;;;5077032;28;20459;-75
2023/10/01 00:04:13;;;;;;;13.90;8.70;;;;;;;;;;5076919;28;20916;-76
2023/10/01 00:06:41;;;;;;;15.07;8.53;;;;;;;;;;5076984;28;20833;-76
2023/10/01 00:09:09;;;;;;;14.33;8.50;;;;;;;;;;5076342;28;20440;-75
2023/10/01 00:11:42;;;;;;;17.17;9.40;;;;;;;;;;5076659;28;20440;-76
2023/10/01 00:14:11;;;;;;;17.70;9.53;;;;;;;;;;5076416;28;20504;-76
2023/10/01 00:16:40;;;;;;;12.83;8.63;;;;;;;;;;5076350;28;20436;-75
2023/10/01 00:19:10;;;;;;;12.10;7.70;;;;;;;;;;5076372;28;20470;-76
2023/10/01 00:21:38;;;;;;;17.77;8.13;;;;;;;;;;5076691;28;20443;-75
2023/10/01 00:24:12;;;;;;;15.70;8.43;;;;;;;;;;5075681;28;20937;-75
2023/10/01 00:26:42;;;;;;;11.83;7.70;;;;;;;;;;5075659;28;20431;-75
2023/10/01 00:29:09;;;;;;;13.00;9.07;;;;;;;;;;5075775;28;20990;-75
2023/10/01 00:31:37;;;;;;;15.10;8.80;;;;;;;;;;5076546;28;20455;-75
2023/10/01 00:34:07;;;;;;;12.83;7.60;;;;;;;;;;5076402;28;20436;-75
2023/10/01 00:36:35;;;;;;;15.30;7.83;;;;;;;;;;5076042;28;20475;-75
2023/10/01 00:39:03;;;;;;;13.37;7.03;;;;;;;;;;5076080;28;20475;-75
2023/10/01 00:41:37;;;;;;;14.30;8.30;;;;;;;;;;5075349;28;20467;-76
2023/10/01 00:44:05;;;;;;;13.73;7.70;;;;;;;;;;5076290;28;20456;-75
2023/10/01 00:46:43;;;;;;;10.63;6.87;;;;;;;;;;5076175;28;20448;-76
2023/10/01 00:49:12;;;;;;;11.27;6.97;;;;;;;;;;5076215;28;20770;-75
2023/10/01 00:51:48;;;;;;;11.57;7.30;;;;;;;;;;5075344;28;20490;-75
2023/10/01 00:54:21;;;;;;;11.53;7.20;;;;;;;;;;5076015;28;20420;-75
2023/10/01 00:56:50;;;;;;;10.33;6.17;;;;;;;;;;5075650;28;20463;-75
2023/10/01 00:59:18;;;;;;;10.50;7.13;;;;;;;;;;5074866;28;20826;-76
2023/10/01 01:01:46;;;;;;;9.67;5.93;;;;;;;;;;5075594;28;20432;-76
2023/10/01 01:04:21;;;;;;;9.85;7.10;;;;;;;;;;5075558;28;20437;-76
2023/10/01 01:06:49;;;;;;;10.00;5.57;;;;;;;;;;5075080;28;20265;-75
2023/10/01 01:09:28;;;;;;;9.60;6.50;;;;;;;;;;5075708;28;20782;-76
2023/10/01 01:11:56;;;;;;;10.77;7.35;;;;;;;;;;5073984;28;20429;-76
2023/10/01 01:14:30;;;;;;;12.45;8.02;;;;;;;;;;5075414;28;20190;-76
2023/10/01 01:17:03;;;;;;;11.15;6.28;;;;;;;;;;5075288;28;20181;-75
2023/10/01 01:19:34;;;;;;;10.90;7.50;;;;;;;;;;5074594;28;20216;-75
2023/10/01 01:22:02;;;;;;;9.90;5.77;;;;;;;;;;5075483;28;20524;-76
2023/10/01 01:24:31;;;;;;;8.67;5.20;;;;;;;;;;5075494;28;20490;-76
2023/10/01 01:27:06;;;;;;;8.73;4.70;;;;;;;;;;5075092;28;20490;-76
2023/10/01 01:29:40;;;;;;;8.77;5.90;;;;;;;;;;5075731;28;20778;-75
2023/10/01 01:32:14;;;;;;;12.00;6.20;;;;;;;;;;5075445;28;20769;-76
2023/10/01 01:34:42;;;;;;;12.37;6.60;;;;;;;;;;5074426;28;20437;-76
2023/10/01 01:37:30;;;;;;;9.70;5.50;;;;;;;;;;5074806;28;20440;-75
2023/10/01 01:39:59;;;;;;;9.17;5.53;;;;;;;;;;5075235;28;20502;-76
2023/10/01 01:42:28;;;;;;;13.70;7.37;;;;;;;;;;5074797;28;20432;-76
2023/10/01 01:47:39;;;;;;;12.25;6.57;;;;;;;;;;5073427;28;20607;-75
2023/10/01 01:50:17;;;;;;;11.70;7.13;;;;;;;;;;5074162;28;20240;-76
2023/10/01 01:52:49;;;;;;;12.68;7.65;;;;;;;;;;5074833;28;20425;-76
2023/10/01 01:55:26;;;;;;;20.27;7.60;;;;;;;;;;5074506;28;20221;-75
2023/10/01 01:58:08;;;;;;;8.33;5.90;;;;;;;;;;5074785;28;20464;-76
2023/10/01 02:00:37;;;;;;;15.60;7.57;;;;;;;;;;5074424;28;20424;-76
2023/10/01 02:03:12;;;;;;;10.67;6.70;;;;;;;;;;5073789;28;20193;-76
2023/10/01 02:05:41;;;;;;;12.80;6.72;;;;;;;;;;5074785;28;20424;-75
2023/10/01 02:08:23;;;;;;;15.17;7.40;;;;;;;;;;5074148;28;20280;-75
2023/10/01 02:10:54;;;;;;;10.43;5.75;;;;;;;;;;5073586;28;20446;-76
2023/10/01 02:13:24;;;;;;;12.73;7.03;;;;;;;;;;5074631;28;20283;-76
2023/10/01 02:15:52;;;;;;;15.17;9.40;;;;;;;;;;5073728;28;20429;-76
2023/10/01 02:18:20;;;;;;;13.43;7.00;;;;;;;;;;5074072;28;20827;-76
2023/10/01 02:20:55;;;;;;;10.65;6.38;;;;;;;;;;5074369;28;20182;-76
2023/10/01 02:23:26;;;;;;;13.02;6.65;;;;;;;;;;5073963;28;20189;-76
2023/10/01 02:25:57;;;;;;;13.40;7.00;;;;;;;;;;5073925;28;20182;-75
2023/10/01 02:28:26;;;;;;;17.77;6.90;;;;;;;;;;5074295;28;20494;-76
2023/10/01 02:30:57;;;;;;;13.45;6.32;;;;;;;;;;5064609;28;20190;-76
2023/10/01 02:33:25;;;;;;;13.70;7.63;;;;;;;;;;5053534;28;20190;-75
2023/10/01 02:35:58;;;;;;;18.73;7.13;;;;;;;;;;5053773;28;20472;-75
2023/10/01 02:38:43;;;;;;;12.83;6.97;;;;;;;;;;5053649;28;20472;-76
2023/10/01 02:41:11;;;;;;;13.93;7.28;;;;;;;;;;5053698;28;20472;-76
2023/10/01 02:43:41;;;;;;;14.20;7.70;;;;;;;;;;5053678;28;20274;-76
2023/10/01 02:46:09;;;;;;;11.95;6.95;;;;;;;;;;5053675;28;20176;-75
2023/10/01 02:48:40;;;;;;;14.00;6.43;;;;;;;;;;5053787;28;20199;-76
2023/10/01 02:51:15;;;;;;;14.43;7.97;;;;;;;;;;5053560;28;20642;-76
2023/10/01 02:54:01;;;;;;;13.25;6.88;;;;;;;;;;5053508;28;20440;-76
2023/10/01 02:56:32;;;;;;;12.50;7.50;;;;;;;;;;5071319;28;20174;-76
2023/10/01 02:59:07;;;;;;;13.82;7.07;;;;;;;;;;5071543;28;20431;-76
2023/10/01 03:01:38;;;;;;;13.07;6.95;;;;;;;;;;5073725;28;20201;-75
2023/10/01 03:04:10;;;;;;;12.68;6.68;;;;;;;;;;5073161;28;20235;-75
2023/10/01 03:06:47;;;;;;;13.52;7.57;;;;;;;;;;5073799;28;20182;-75
2023/10/01 03:09:32;;;;;;;12.20;6.18;;;;;;;;;;5073470;28;20267;-76
2023/10/01 03:15:00;;;;;;;15.30;9.88;;;;;;;;;;5073035;28;20205;-76
2023/10/01 03:17:27;;;;;;;18.88;9.77;;;;;;;;;;5073259;28;20182;-75
2023/10/01 03:20:11;;;;;;;18.95;9.80;;;;;;;;;;5073130;28;20623;-76
2023/10/01 03:22:37;;;;;;;15.00;9.80;;;;;;;;;;5072500;28;20198;-76
2023/10/01 03:25:12;;;;;;;15.07;9.32;;;;;;;;;;5073106;28;20187;-76
2023/10/01 03:27:41;;;;;;;11.90;8.48;;;;;;;;;;5071574;28;20178;-76
2023/10/01 03:30:20;;;;;;;13.00;7.80;;;;;;;;;;5067475;28;20215;-76
2023/10/01 03:32:47;;;;;;;14.68;8.25;;;;;;;;;;5072546;28;20185;-76
2023/10/01 03:35:15;;;;;;;12.38;8.25;;;;;;;;;;5072989;28;20290;-76
2023/10/01 03:37:43;;;;;;;13.00;7.68;;;;;;;;;;5055939;28;20182;-76
2023/10/01 03:40:21;;;;;;;13.10;7.28;;;;;;;;;;5052986;28;20191;-76
2023/10/01 03:42:54;;;;;;;13.68;7.03;;;;;;;;;;5053024;28;20210;-76
2023/10/01 03:45:38;;;;;;;12.15;6.82;;;;;;;;;;5053170;28;20174;-75
2023/10/01 03:48:12;;;;;;;11.40;6.88;;;;;;;;;;5052787;28;20205;-75
2023/10/01 03:50:46;;;;;;;11.23;6.47;;;;;;;;;;5054245;28;20175;-76
2023/10/01 03:53:18;;;;;;;10.65;6.15;;;;;;;;;;5052753;28;20641;-75
2023/10/01 03:55:46;;;;;;;12.63;6.10;;;;;;;;;;5052834;28;20685;-75
2023/10/01 03:58:26;;;;;;;10.55;6.78;;;;;;;;;;5053119;28;20199;-76
2023/10/01 04:01:03;;;;;;;13.70;5.90;;;;;;;;;;5053505;28;20210;-75
2023/10/01 04:03:38;;;;;;;10.82;6.15;;;;;;;;;;5052724;28;20625;-76
2023/10/01 04:06:06;;;;;;;13.20;5.25;;;;;;;;;;5052659;28;20178;-75
2023/10/01 04:08:39;;;;;;;10.90;5.18;;;;;;;;;;5052455;28;20421;-75
2023/10/01 04:11:11;;;;;;;13.32;5.72;;;;;;;;;;5053044;28;20202;-76
2023/10/01 04:13:41;;;;;;;8.15;4.72;;;;;;;;;;5052736;28;20233;-75
2023/10/01 04:16:15;;;;;;;9.60;5.13;;;;;;;;;;5052802;28;20271;-76
2023/10/01 04:18:43;;;;;;;10.63;5.75;;;;;;;;;;5052365;28;20268;-76
2023/10/01 04:23:54;;;;;;;8.88;4.97;;;;;;;;;;5052798;28;20187;-76
2023/10/01 04:26:25;;;;;;;8.23;5.40;;;;;;;;;;5052806;28;20286;-75
2023/10/01 04:28:59;;;;;;;7.80;4.80;;;;;;;;;;5055381;28;20198;-76
2023/10/01 04:31:49;;;;;;;9.88;6.18;;;;;;;;;;5072732;28;20233;-76
2023/10/01 04:34:18;;;;;;;10.50;4.60;;;;;;;;;;5074527;28;20189;-75
2023/10/01 04:36:51;;;;;;;8.52;4.25;;;;;;;;;;5074154;28;20644;-75
2023/10/01 04:39:19;;;;;;;9.43;4.65;;;;;;;;;;5076052;28;20236;-76
2023/10/01 04:41:47;;;;;;;8.63;5.13;;;;;;;;;;5076298;28;20226;-76
2023/10/01 04:44:19;;;;;;;9.20;4.97;;;;;;;;;;5075957;28;20194;-75
2023/10/01 04:46:47;;;;;;;8.10;5.25;;;;;;;;;;5070762;28;20229;-76
2023/10/01 04:52:00;;;;;;;11.70;6.38;;;;;;;;;;5053075;28;20230;-76
2023/10/01 04:54:28;;;;;;;10.00;5.78;;;;;;;;;;5055630;28;20193;-75
2023/10/01 04:56:57;;;;;;;9.88;5.93;;;;;;;;;;5055847;28;20246;-76
2023/10/01 04:59:27;;;;;;;15.50;6.07;;;;;;;;;;5055530;28;20634;-75
2023/10/01 05:01:58;;;;;;;10.13;5.82;;;;;;;;;;5055777;28;20241;-75
2023/10/01 05:04:27;;;;;;;12.10;6.60;;;;;;;;;;5056073;28;20266;-76
2023/10/01 05:07:04;;;;;;;14.15;8.18;;;;;;;;;;5055475;28;20197;-76
2023/10/01 05:09:33;;;;;;;13.90;7.30;;;;;;;;;;5055126;28;20203;-75
2023/10/01 05:12:08;;;;;;;14.65;6.65;;;;;;;;;;5055370;28;20692;-76
2023/10/01 05:14:56;;;;;;;8.85;4.82;;;;;;;;;;5055736;28;20179;-75
2023/10/01 05:17:23;;;;;;;9.00;5.00;;;;;;;;;;5055810;28;20183;-75
2023/10/01 05:19:56;;;;;;;11.20;5.80;;;;;;;;;;5055190;28;20227;-76
2023/10/01 05:22:29;;;;;;;11.40;4.85;;;;;;;;;;5055956;28;20233;-76
2023/10/01 05:24:58;;;;;;;9.82;5.63;;;;;;;;;;5070502;28;20180;-76
2023/10/01 05:27:28;;;;;;;10.27;5.25;;;;;;;;;;5055212;28;20191;-76
2023/10/01 05:29:57;;;;;;;9.15;4.88;;;;;;;;;;5054757;28;20643;-76
2023/10/01 05:32:24;;;;;;;7.88;4.70;;;;;;;;;;5055112;28;20198;-76
2023/10/01 05:35:14;;;;;;;10.27;5.20;;;;;;;;;;5055042;28;20202;-75
2023/10/01 05:37:45;;;;;;;9.90;5.38;;;;;;;;;;5054927;28;20185;-76
2023/10/01 05:40:18;;;;;;;10.38;5.55;;;;;;;;;;5054877;28;20183;-76
2023/10/01 05:42:49;;;;;;;10.13;5.22;;;;;;;;;;5054796;28;20178;-76
2023/10/01 05:45:19;;;;;;;7.45;4.70;;;;;;;;;;5054613;28;20179;-76
2023/10/01 05:47:54;;;;;;;8.75;4.70;;;;;;;;;;5054279;28;20626;-76
2023/10/01 05:50:22;;;;;;;10.35;5.00;;;;;;;;;;5054323;28;20210;-76
2023/10/01 05:52:50;;;;;;;8.50;5.00;;;;;;;;;;5054597;28;20191;-75
2023/10/01 05:55:19;;;;;;;8.10;4.50;;;;;;;;;;5054272;28;20664;-75
2023/10/01 05:57:50;;;;;;;7.07;3.70;;;;;;;;;;5054538;28;20195;-76
2023/10/01 06:00:25;;;;;;;8.27;4.13;;;;;;;;;;5053966;28;20282;-76
2023/10/01 06:03:00;;;;;;;10.77;4.90;;;;;;;;;;5054640;28;20261;-75
2023/10/01 06:05:42;;;;;;;14.25;7.68;;;;;;;;;;5065998;28;20232;-76
2023/10/01 06:08:15;;;;;;;9.82;5.30;;;;;;;;;;5057786;28;20190;-75
2023/10/01 06:10:49;;;;;;;12.35;7.18;;;;;;;;;;5053680;28;20198;-76
2023/10/01 06:13:19;;;;;;;9.85;5.65;;;;;;;;;;5054204;28;20229;-75
2023/10/01 06:15:48;;;;;;;12.60;7.70;;;;;;;;;;5053931;28;20190;-76
2023/10/01 06:18:15;;;;;;;10.20;6.50;;;;;;;;;;5053471;28;20195;-75
2023/10/01 06:20:46;;;;;;;14.15;7.57;;;;;;;;;;5056051;28;20692;-75
2023/10/01 06:23:14;;;;;;;14.15;8.35;;;;;;;;;;5074110;28;20232;-75
2023/10/01 06:25:43;;;;;;;13.05;6.72;;;;;;;;;;5073161;28;20256;-75
2023/10/01 06:28:20;;;;;;;17.85;9.23;;;;;;;;;;5073689;28;20186;-75
2023/10/01 06:30:49;;;;;;;13.00;6.33;;;;;;;;;;5073671;28;20604;-75
2023/10/01 06:33:30;;;;;;;12.27;6.90;;;;;;;;;;5073809;28;20482;-75
2023/10/01 06:36:16;;;;;;;13.30;6.50;;;;;;;;;;5073836;28;20420;-75
2023/10/01 06:38:44;;;;;;;13.60;6.57;;;;;;;;;;5073696;28;20497;-76
2023/10/01 06:41:16;;;;;;;18.70;7.60;;;;;;;;;;5072556;28;20448;-75
2023/10/01 06:43:49;;;;;;;15.93;8.00;;;;;;;;;;5073382;28;20421;-76
2023/10/01 06:46:21;;;;;;;15.07;7.53;;;;;;;;;;5073787;28;20432;-75
2023/10/01 06:48:50;;;;;;;10.80;6.17;;;;;;;;;;5073844;28;20435;-75
2023/10/01 06:51:19;;;;;;;14.63;6.33;;;;;;;;;;5073589;28;20440;-76
2023/10/01 06:53:54;;;;;;;12.57;7.20;;;;;;;;;;5072867;28;20841;-75
2023/10/01 06:56:21;;;;;;;14.37;7.93;;;;;;;;;;5072954;28;20424;-75
2023/10/01 06:59:12;;;;;;;14.50;7.83;;;;;;;;;;5073186;28;20447;-76
2023/10/01 07:01:48;;;;;;;16.27;6.87;;;;;;;;;;5073171;28;20422;-76
2023/10/01 07:04:17;;;;;;;12.70;6.53;;;;;;;;;;5065233;28;20494;-76
2023/10/01 07:06:51;;;;;;;15.50;8.20;;;;;;;;;;5072438;28;20472;-76
2023/10/01 07:09:28;;;;;;;14.40;8.27;;;;;;;;;;5072628;28;20526;-76
2023/10/01 07:12:00;;;;;;;14.63;7.60;;;;;;;;;;5072860;28;20481;-76
2023/10/01 07:14:31;;;;;;;13.00;8.13;;;;;;;;;;5058705;28;20441;-76
2023/10/01 07:17:03;;;;;;;13.97;8.20;;;;;;;;;;5052444;28;20893;-76
2023/10/01 07:19:30;;;;;;;17.83;8.20;;;;;;;;;;5051961;28;20469;-76
2023/10/01 07:21:58;;;;;;;14.03;7.33;;;;;;;;;;5052551;28;20433;-76
2023/10/01 07:24:28;;;;;;;14.60;8.30;;;;;;;;;;5052582;28;20487;-76
2023/10/01 07:27:03;;;;;;;13.03;8.20;;;;;;;;;;5052969;28;21218;-76
2023/10/01 07:29:33;;;;;;;16.43;8.07;;;;;;;;;;5051979;28;20461;-76
2023/10/01 07:32:02;;;;;;;13.50;8.90;;;;;;;;;;5052528;28;20522;-76
2023/10/01 07:34:31;;;;;;;17.20;9.77;;;;;;;;;;5052216;28;20491;-76
2023/10/01 07:37:00;;;;;;;12.33;8.90;;;;;;;;;;5055875;28;20436;-76
2023/10/01 07:39:32;;;;;;;14.57;8.83;;;;;;;;;;5071718;28;20949;-76
2023/10/01 07:42:02;;;;;;;13.10;9.00;;;;;;;;;;5072261;28;20477;-76
2023/10/01 07:44:29;;;;;;;12.60;8.47;;;;;;;;;;5072412;28;20431;-76
2023/10/01 07:46:56;;;;;;;15.27;9.27;;;;;;;;;;5072383;28;20848;-77
2023/10/01 07:49:41;;;;;;;19.20;9.10;;;;;;;;;;5071659;28;20548;-77
2023/10/01 07:52:10;;;;;;;11.70;8.77;;;;;;;;;;5072481;28;20498;-76
2023/10/01 07:54:41;;;;;;;13.63;9.00;;;;;;;;;;5072319;28;20464;-76
2023/10/01 07:57:13;;;;;;;13.97;9.10;;;;;;;;;;5071566;28;20967;-76
2023/10/01 07:59:55;;;;;;;11.10;8.70;;;;;;;;;;5071974;28;20468;-76
2023/10/01 08:02:25;;;;;;;12.67;9.17;;;;;;;;;;5058302;28;21013;-76
2023/10/01 08:04:59;;;;;;;16.47;9.77;;;;;;;;;;5069823;28;20428;-76
2023/10/01 08:07:31;;;;;;;14.00;9.33;;;;;;;;;;5064743;28;20438;-76
2023/10/01 08:09:59;;;;;;;14.30;9.27;;;;;;;;;;5046884;28;20433;-76
2023/10/01 08:12:49;;;;;;;11.80;8.90;;;;;;;;;;5055008;28;20453;-77
2023/10/01 08:15:16;;;;;;;14.77;8.90;;;;;;;;;;5068480;28;20435;-77
2023/10/01 08:17:45;;;;;;;13.47;10.40;;;;;;;;;;5075699;28;20436;-77
2023/10/01 08:20:17;;;;;;;12.70;8.07;;;;;;;;;;5075849;28;20977;-77
2023/10/01 08:25:42;;;;;;;14.57;10.00;;;;;;;;;;5074622;28;20949;-77
2023/10/01 08:28:26;;;;;;;12.03;9.10;;;;;;;;;;5057919;28;20487;-77
2023/10/01 08:31:02;;;;;;;17.70;10.40;;;;;;;;;;5055309;28;20949;-77
2023/10/01 08:33:42;;;;;;;14.47;10.07;;;;;;;;;;5055407;28;20437;-77
2023/10/01 08:36:16;;;;;;;23.27;10.30;;;;;;;;;;5056170;28;20910;-77
2023/10/01 08:38:47;;;;;;;13.50;9.47;;;;;;;;;;5074798;28;20454;-77
2023/10/01 08:41:32;;;;;;;16.93;10.20;;;;;;;;;;5061923;28;20548;-77
2023/10/01 08:44:10;;;;;;;12.73;9.00;;;;;;;;;;5054684;28;20833;-77
2023/10/01 08:46:39;;;;;;;13.60;9.20;;;;;;;;;;5054299;28;20433;-77
2023/10/01 08:49:23;;;;;;;12.73;10.10;;;;;;;;;;5054939;28;20444;-77
2023/10/01 08:51:54;;;;;;;13.10;9.53;;;;;;;;;;5067733;28;20453;-77
2023/10/01 08:54:25;;;;;;;13.60;9.97;;;;;;;;;;5060051;28;20855;-77
2023/10/01 08:56:57;;;;;;;14.17;10.30;;;;;;;;;;5050543;28;20517;-77
2023/10/01 08:59:25;;;;;;;12.50;9.17;;;;;;;;;;5045330;28;20903;-77
2023/10/01 09:01:55;;;;;;;16.43;10.47;;;;;;;;;;5055207;28;20759;-74
2023/10/01 09:04:44;;;;;;;16.40;10.87;;;;;;;;;;5054609;28;20491;-74
2023/10/01 09:07:18;;;;;;;12.00;8.93;;;;;;;;;;5054326;28;20845;-74
2023/10/01 09:10:06;;;;;;;11.60;8.93;;;;;;;;;;5054483;28;20963;-74
2023/10/01 09:12:35;;;;;;;11.43;8.57;;;;;;;;;;5054409;28;20440;-74
2023/10/01 09:15:04;;;;;;;12.73;8.97;;;;;;;;;;5073253;28;20470;-74
2023/10/01 09:17:40;;;;;;;13.13;10.23;;;;;;;;;;5074830;28;20498;-75
2023/10/01 09:20:09;;;;;;;13.73;10.10;;;;;;;;;;5073791;28;20484;-74
2023/10/01 09:22:42;;;;;;;12.03;9.10;;;;;;;;;;5074684;28;20440;-74
2023/10/01 09:25:16;;;;;;;13.70;10.17;;;;;;;;;;5072392;28;20475;-75
2023/10/01 09:27:57;;;;;;;14.87;10.27;;;;;;;;;;5074566;28;20529;-74
2023/10/01 09:30:26;;;;;;;12.30;9.77;;;;;;;;;;5073819;28;20932;-74
2023/10/01 09:32:54;;;;;;;13.63;9.80;;;;;;;;;;5074513;28;20447;-74
2023/10/01 09:35:38;;;;;;;14.60;10.10;;;;;;;;;;5074314;28;20505;-75
2023/10/01 09:38:18;;;;;;;16.00;9.73;;;;;;;;;;5058494;28;20958;-75
2023/10/01 09:40:46;;;;;;;12.00;9.10;;;;;;;;;;5054278;28;20457;-74
2023/10/01 09:43:19;;;;;;;10.70;8.90;;;;;;;;;;5048877;28;20863;-74
2023/10/01 09:45:47;;;;;;;12.47;9.03;;;;;;;;;;5053730;28;20471;-74
2023/10/01 09:48:29;;;;;;;12.20;9.50;;;;;;;;;;5053149;28;20433;-75
2023/10/01 09:50:59;;;;;;;11.40;9.37;;;;;;;;;;5033823;28;20558;-74
2023/10/01 09:53:31;;;;;;;14.53;10.20;;;;;;;;;;5033867;28;20496;-75
2023/10/01 09:56:01;;;;;;;12.40;10.23;;;;;;;;;;5034107;28;20422;-75
2023/10/01 09:58:29;;;;;;;15.00;12.23;;;;;;;;;;5034151;28;20434;-75
2023/10/01 10:01:01;;;;;;;15.60;11.50;;;;;;;;;;5046276;28;20529;-74
2023/10/01 10:03:36;;;;;;;16.87;12.37;;;;;;;;;;5053987;28;20471;-75
2023/10/01 10:06:06;;;;;;;19.90;13.43;;;;;;;;;;5053703;28;20474;-75
2023/10/01 10:08:35;;;;;;;14.17;11.20;;;;;;;;;;5054527;28;20441;-75
2023/10/01 10:11:06;;;;;;;15.13;10.90;;;;;;;;;;5051341;28;20487;-75
2023/10/01 10:13:46;;;;;;;12.40;9.83;;;;;;;;;;5053945;28;20457;-75
2023/10/01 10:16:32;;;;;;;12.50;10.10;;;;;;;;;;5053326;28;20919;-75
2023/10/01 10:19:05;;;;;;;14.37;10.83;;;;;;;;;;5069975;28;20476;-75
2023/10/01 10:21:47;;;;;;;12.27;9.53;;;;;;;;;;5073435;28;20432;-75
2023/10/01 10:24:28;;;;;;;13.03;10.63;;;;;;;;;;5072257;28;20443;-75
2023/10/01 10:26:58;;;;;;;12.67;10.33;;;;;;;;;;5073436;28;20547;-75
2023/10/01 10:29:47;;;;;;;14.07;10.70;;;;;;;;;;5071509;28;20527;-75
2023/10/01 10:32:14;;;;;;;13.13;10.10;;;;;;;;;;5031888;28;20440;-75
2023/10/01 10:35:16;;;;;;;15.40;9.70;;;;;;;;;;5032964;28;20434;-75
2023/10/01 10:37:47;;;;;;;16.20;9.97;;;;;;;;;;5043172;28;20436;-75
2023/10/01 10:40:29;;;;;;;12.70;9.20;;;;;;;;;;5055233;28;20994;-75
2023/10/01 10:43:18;;;;;;;13.13;9.97;;;;;;;;;;5056102;28;20759;-75
2023/10/01 10:46:01;;;;;;;11.53;9.53;;;;;;;;;;5052331;28;20432;-74
2023/10/01 10:48:47;;;;;;;11.70;9.80;;;;;;;;;;5052462;28;20439;-75
2023/10/01 10:51:43;;;;;;;13.70;10.30;;;;;;;;;;5052331;28;20485;-75
2023/10/01 10:54:16;;;;;;;15.00;9.83;;;;;;;;;;5057505;28;20506;-74
2023/10/01 10:56:45;;;;;;;13.90;11.00;;;;;;;;;;5052356;28;20453;-75
2023/10/01 10:59:19;;;;;;;11.83;9.47;;;;;;;;;;5052614;28;20446;-75
2023/10/01 11:01:47;;;;;;;13.13;9.70;;;;;;;;;;5052681;28;20535;-75
2023/10/01 11:04:16;;;;;;;15.00;10.70;;;;;;;;;;5052120;28;20433;-75
2023/10/01 11:06:44;;;;;;;15.00;10.20;;;;;;;;;;5072486;28;20475;-75
2023/10/01 11:09:22;;;;;;;12.03;9.67;;;;;;;;;;5063301;28;20931;-75
2023/10/01 11:11:51;;;;;;;13.80;10.20;;;;;;;;;;5052467;28;20464;-75
2023/10/01 11:14:20;;;;;;;14.27;10.50;;;;;;;;;;5069952;28;20447;-75
2023/10/01 11:16:48;;;;;;;13.60;10.23;;;;;;;;;;5070554;28;20432;-75
2023/10/01 11:19:18;;;;;;;13.53;10.07;;;;;;;;;;5052315;28;20460;-74
2023/10/01 11:21:57;;;;;;;13.30;10.50;;;;;;;;;;5045418;28;20421;-75
2023/10/01 11:24:25;;;;;;;15.63;9.37;;;;;;;;;;5049980;28;20425;-75
2023/10/01 11:27:40;;;;;;;13.40;9.33;;;;;;;;;;5052445;28;20437;-75
2023/10/01 11:30:20;;;;;;;17.60;11.27;;;;;;;;;;5064977;28;20455;-75
2023/10/01 11:33:12;;;;;;;15.00;11.17;;;;;;;;;;5072362;28;20420;-75
2023/10/01 11:35:41;;;;;;;12.47;9.83;;;;;;;;;;5072509;28;20497;-75
2023/10/01 11:38:09;;;;;;;12.60;9.07;;;;;;;;;;5072151;28;20479;-75
2023/10/01 11:43:36;;;;;;;13.70;9.20;;;;;;;;;;5041235;28;20432;-76
2023/10/01 11:46:25;;;;;;;14.70;10.47;;;;;;;;;;5053436;28;20424;-75
2023/10/01 11:49:03;;;;;;;12.47;9.63;;;;;;;;;;5055448;28;20931;-75
2023/10/01 11:51:48;;;;;;;12.43;9.60;;;;;;;;;;5057225;28;20468;-75
2023/10/01 11:54:16;;;;;;;13.27;9.03;;;;;;;;;;5055590;28;20436;-75
2023/10/01 11:56:44;;;;;;;13.40;10.30;;;;;;;;;;5056321;28;20430;-75
2023/10/01 11:59:17;;;;;;;10.73;8.47;;;;;;;;;;5056319;28;20429;-75
2023/10/01 12:01:51;;;;;;;12.97;10.60;;;;;;;;;;5055742;28;20469;-75
2023/10/01 12:04:24;;;;;;;13.40;9.70;;;;;;;;;;5056305;28;20426;-75
2023/10/01 12:06:53;;;;;;;13.10;9.73;;;;;;;;;;5056331;28;20421;-76
2023/10/01 12:09:21;;;;;;;14.50;10.67;;;;;;;;;;5055895;28;20441;-75
2023/10/01 12:15:33;;;;;;;12.50;9.60;;;;;;;;;;5087885;28;20547;-77
2023/10/01 12:17:46;;;;;;;14.50;9.83;;;;;;;;;;5070968;28;20555;-76
2023/10/01 12:20:22;;;;;;;13.07;10.30;;;;;;;;;;5066470;28;20452;-77
2023/10/01 12:23:04;;;;;;;13.03;10.00;;;;;;;;;;5071543;28;20539;-77
2023/10/01 12:25:42;;;;;;;13.47;10.17;;;;;;;;;;5064871;28;20433;-77
2023/10/01 12:28:15;;;;;;;15.30;9.43;;;;;;;;;;5067303;28;20436;-76
2023/10/01 12:30:44;;;;;;;13.93;10.37;;;;;;;;;;5067729;28;20441;-77
2023/10/01 12:33:11;;;;;;;12.80;9.70;;;;;;;;;;5071846;28;20541;-77
2023/10/01 12:35:39;;;;;;;13.00;9.40;;;;;;;;;;5073196;28;20918;-77
2023/10/01 12:40:55;;;;;;;13.60;10.00;;;;;;;;;;5065209;28;20416;-76
2023/10/01 12:43:37;;;;;;;12.23;9.37;;;;;;;;;;5070800;28;20946;-77
2023/10/01 12:46:09;;;;;;;12.80;9.97;;;;;;;;;;5069539;28;20502;-77
2023/10/01 12:48:36;;;;;;;15.63;10.10;;;;;;;;;;5065185;28;20535;-77
2023/10/01 12:51:04;;;;;;;13.40;8.77;;;;;;;;;;5069769;28;20443;-77
2023/10/01 12:53:35;;;;;;;13.60;9.80;;;;;;;;;;5073588;28;20528;-76
2023/10/01 12:56:06;;;;;;;13.47;9.40;;;;;;;;;;5071001;28;20465;-76
2023/10/01 12:58:36;;;;;;;15.87;10.40;;;;;;;;;;5067889;28;20938;-76
2023/10/01 13:01:04;;;;;;;15.60;10.00;;;;;;;;;;5067321;28;20517;-76
2023/10/01 13:03:42;;;;;;;11.90;9.40;;;;;;;;;;5068075;28;20494;-76
2023/10/01 13:06:12;;;;;;;14.00;9.70;;;;;;;;;;5067434;28;20469;-75
2023/10/01 13:08:41;;;;;;;12.10;9.60;;;;;;;;;;5069343;28;20429;-76
2023/10/01 13:11:42;;;;;;;14.40;9.77;;;;;;;;;;5068037;28;20897;-76
2023/10/01 13:13:55;;;;;;;17.00;10.03;;;;;;;;;;5084931;28;20452;-76
2023/10/01 13:16:22;;;;;;;15.03;10.40;;;;;;;;;;5089333;28;20440;-76
2023/10/01 13:19:17;;;;;;;16.43;9.57;;;;;;;;;;5089021;28;20438;-76
2023/10/01 13:21:47;;;;;;;14.03;10.00;;;;;;;;;;5089659;28;20511;-76
2023/10/01 13:24:17;;;;;;;15.27;9.90;;;;;;;;;;5086250;28;20436;-76
2023/10/01 13:26:45;;;;;;;22.50;10.23;;;;;;;;;;5076071;28;20854;-76
2023/10/01 13:29:28;;;;;;;16.87;9.00;;;;;;;;;;5076248;28;20824;-76
2023/10/01 13:32:02;;;;;;;16.90;10.50;;;;;;;;;;5076124;28;20544;-76
2023/10/01 13:34:48;;;;;;;15.77;10.03;;;;;;;;;;5075737;28;20491;-76
2023/10/01 13:40:19;;;;;;;14.77;8.47;;;;;;;;;;5075768;28;20403;-76
2023/10/01 14:10:53;;;;;;;15.50;8.27;;;;;;;;;;5055546;28;20768;-76
2023/10/01 14:13:29;;;;;;;15.83;7.73;;;;;;;;;;5074820;28;20552;-76
2023/10/01 14:16:11;;;;;;;18.67;9.50;;;;;;;;;;5075023;28;20424;-76
2023/10/01 14:18:38;;;;;;;15.60;8.90;;;;;;;;;;5074975;28;20939;-76
2023/10/01 14:21:12;;;;;;;15.17;9.37;;;;;;;;;;5074958;28;20991;-76
2023/10/01 14:23:42;;;;;;;13.87;7.63;;;;;;;;;;5075051;28;20864;-76
2023/10/01 14:26:13;;;;;;;18.10;9.83;;;;;;;;;;5074768;28;20482;-75
2023/10/01 14:28:46;;;;;;;13.80;8.57;;;;;;;;;;5075163;28;20455;-76
2023/10/01 14:31:19;;;;;;;17.63;9.40;;;;;;;;;;5074330;28;20440;-75
2023/10/01 14:33:47;;;;;;;16.90;8.50;;;;;;;;;;5074092;28;20945;-76
2023/10/01 14:36:20;;;;;;;17.73;8.00;;;;;;;;;;5073542;28;20451;-76
2023/10/01 14:38:48;;;;;;;14.87;8.03;;;;;;;;;;5074087;28;20978;-75
2023/10/01 14:41:17;;;;;;;16.80;9.47;;;;;;;;;;5074371;28;20441;-75
2023/10/01 14:43:51;;;;;;;13.87;8.43;;;;;;;;;;5074260;28;20475;-76
2023/10/01 14:46:20;;;;;;;16.80;8.37;;;;;;;;;;5074067;28;20482;-76
2023/10/01 14:48:48;;;;;;;16.03;9.23;;;;;;;;;;5073971;28;20448;-76
2023/10/01 14:51:16;;;;;;;13.87;8.20;;;;;;;;;;5074175;28;20437;-75
2023/10/01 14:53:44;;;;;;;13.40;7.97;;;;;;;;;;5073750;28;20494;-75
2023/10/01 14:56:20;;;;;;;16.30;8.00;;;;;;;;;;5074066;28;20482;-75
2023/10/01 14:58:51;;;;;;;16.83;9.37;;;;;;;;;;5074133;28;20846;-75
2023/10/01 15:01:18;;;;;;;15.40;8.33;;;;;;;;;;5073723;28;20420;-75
2023/10/01 15:03:53;;;;;;;17.57;8.80;;;;;;;;;;5073936;28;20510;-75
2023/10/01 15:06:26;;;;;;;19.43;9.50;;;;;;;;;;5073754;28;20424;-76
2023/10/01 15:08:58;;;;;;;15.97;8.77;;;;;;;;;;5069350;28;20452;-75
2023/10/01 15:11:26;;;;;;;15.70;8.57;;;;;;;;;;5073562;28;20431;-75
2023/10/01 15:13:55;;;;;;;17.80;10.30;;;;;;;;;;5072563;28;20575;-76
2023/10/01 15:16:23;;;;;;;20.93;10.57;;;;;;;;;;5062377;28;20477;-75
2023/10/01 15:19:01;;;;;;;16.50;9.50;;;;;;;;;;5073841;28;20469;-75
2023/10/01 15:21:31;;;;;;;18.60;9.70;;;;;;;;;;5073437;28;20909;-76
2023/10/01 15:24:00;;;;;;;14.70;7.93;;;;;;;;;;5073538;28;20620;-76
2023/10/01 15:26:30;;;;;;;18.83;8.57;;;;;;;;;;5073260;28;20432;-76
2023/10/01 15:29:00;;;;;;;19.37;13.10;;;;;;;;;;5069788;28;20441;-76
2023/10/01 15:31:31;;;;;;;26.57;16.77;;;;;;;;;;5053558;28;20433;-76
2023/10/01 15:34:02;;;;;;;15.40;10.10;;;;;;;;;;5053535;28;20426;-75
2023/10/01 15:36:40;;;;;;;17.13;8.80;;;;;;;;;;5062793;28;20447;-75
2023/10/01 15:39:15;;;;;;;13.33;7.30;;;;;;;;;;5063120;28;20465;-76
2023/10/01 15:41:44;;;;;;;17.90;8.80;;;;;;;;;;5052946;28;20856;-75
2023/10/01 15:44:14;;;;;;;13.50;7.83;;;;;;;;;;5053091;28;20469;-75
2023/10/01 15:46:44;;;;;;;20.53;8.23;;;;;;;;;;5052889;28;20438;-75
2023/10/01 15:49:19;;;;;;;16.53;7.90;;;;;;;;;;5052921;28;20422;-76
2023/10/01 15:51:52;;;;;;;15.47;9.20;;;;;;;;;;5052675;28;20435;-75
2023/10/01 15:54:25;;;;;;;39.67;28.53;;;;;;;;;;5053036;28;20444;-75
2023/10/01 15:56:53;;;;;;;17.60;12.33;;;;;;;;;;5059954;28;20458;-75